Date,TemperatureHighF,TemperatureAvgF,TemperatureLowF,DewpointHighF,DewpointAvgF,DewpointLowF,HumidityHigh,HumidityAvg,HumidityLow,PressureMaxIn,PressureMinIn,WindSpeedMaxMPH,WindSpeedAvgMPH,GustSpeedMaxMPH,PrecipitationSumIn
2013-8-1,65,65,65,61,60,59,85,84,82,30.29,30.27,12,6,12,0.00
2013-8-3,89,72,61,68,59,51,94,70,29,25.28,25.07,31,6,31,0.24
2013-8-4,88,71,57,65,58,48,96,66,27,25.27,25.11,18,2,19,0.00
2013-8-5,86,72,60,62,56,52,85,61,33,25.22,25.06,27,2,28,0.44
2013-8-6,113,72,60,61,54,46,84,55,28,25.16,25.01,126,2,227,0.00
2013-8-7,72,65,59,62,58,52,95,79,57,25.17,25.04,15,1,15,0.00
2013-8-8,75,62,53,65,57,0,100,85,51,25.21,25.07,190,1,227,0.00
2013-8-9,79,64,52,60,54,48,93,72,36,25.32,25.16,158,1,227,0.71
2013-8-10,84,68,52,60,53,44,98,64,29,25.27,25.11,81,1,227,0.00
2013-8-11,80,69,58,59,54,48,84,61,35,25.33,25.15,10,0,11,0.01
2013-8-12,81,66,55,62,57,52,97,76,41,25.34,25.15,20,1,20,0.01
2013-8-13,80,67,55,58,54,49,94,66,36,25.24,25.16,16,2,18,0.00
2013-8-14,81,67,55,60,53,41,100,67,28,25.27,25.07,16,1,16,0.00
2013-8-15,83,68,53,59,52,46,87,60,29,25.23,25.13,12,2,12,0.00
2013-8-16,87,73,56,58,51,39,70,49,25,25.25,25.13,43,2,218,0.00
2013-8-17,93,76,58,58,51,38,89,47,16,25.19,25.05,13,2,13,0.00
2013-8-18,92,74,60,61,55,45,89,55,20,25.17,25.07,20,3,20,0.27
2013-8-19,91,76,58,56,51,46,80,45,22,25.20,25.05,13,2,13,0.00
2013-8-20,95,81,63,53,47,42,56,32,17,25.12,25.00,16,3,16,0.00
2013-8-21,88,76,66,58,52,44,66,44,28,25.26,25.07,31,2,31,0.06
2013-8-22,83,70,62,66,60,55,90,73,46,25.27,25.13,19,2,19,0.01
2013-8-23,86,72,61,62,57,52,81,63,31,25.23,24.99,23,2,23,0.12
2013-8-24,84,71,55,61,56,52,91,63,34,25.20,25.05,14,1,14,0.00
2013-8-25,90,75,62,60,56,50,83,55,27,25.23,25.08,13,1,13,0.00
2013-8-26,90,75,59,63,58,54,89,59,33,25.19,25.09,14,2,220,0.00
2013-8-27,91,77,64,61,58,51,80,54,27,25.15,25.08,11,2,12,0.00
2013-8-28,91,77,64,60,54,45,78,48,23,25.27,25.07,10,0,10,0.00
2013-8-29,93,78,63,55,52,48,67,43,23,25.31,25.10,13,1,13,0.00
2013-8-30,90,76,64,58,54,7,66,49,27,25.29,25.13,104,1,227,0.00
2013-8-31,90,76,62,61,54,48,80,49,26,25.16,25.06,18,2,18,0.00